createdAt,value
2023-04-18T00:00:04.143Z,0.53
2023-04-18T00:01:04.154Z,0.50
2023-04-18T00:02:04.284Z,0.51
2023-04-18T00:03:04.952Z,0.50
2023-04-18T00:04:04.482Z,0.52
2023-04-18T00:05:04.359Z,0.52
2023-04-18T00:06:04.291Z,0.50
2023-04-18T00:07:04.320Z,0.51
2023-04-18T00:08:04.309Z,0.52
2023-04-18T00:09:04.392Z,0.50
2023-04-18T00:10:04.355Z,0.51
2023-04-18T00:11:04.421Z,0.52
2023-04-18T00:12:04.480Z,0.51
2023-04-18T00:13:04.488Z,0.52
2023-04-18T00:14:04.502Z,0.52
2023-04-18T00:15:04.534Z,0.51
2023-04-18T00:16:04.569Z,0.52
2023-04-18T00:17:04.585Z,0.51
2023-04-18T00:18:04.671Z,0.51
2023-04-18T00:19:04.625Z,0.52
2023-04-18T00:20:04.639Z,0.51
2023-04-18T00:21:04.655Z,0.51
2023-04-18T00:22:04.724Z,0.51
2023-04-18T00:23:04.755Z,0.51
2023-04-18T00:24:04.761Z,0.51
2023-04-18T00:25:04.791Z,0.50
2023-04-18T00:26:04.828Z,0.51
2023-04-18T00:27:04.827Z,0.52
2023-04-18T00:28:04.870Z,0.52
2023-04-18T00:29:04.913Z,0.51
2023-04-18T00:30:04.924Z,0.51
2023-04-18T00:31:05.011Z,0.51
2023-04-18T00:32:04.970Z,0.52
2023-04-18T00:33:05.059Z,0.52
2023-04-18T00:34:05.041Z,0.51
2023-04-18T00:35:05.047Z,0.52
2023-04-18T00:36:05.058Z,0.52
2023-04-18T00:37:05.082Z,0.51
2023-04-18T00:38:05.133Z,0.51
2023-04-18T00:39:05.144Z,0.52
2023-04-18T00:40:05.176Z,0.51
2023-04-18T00:41:05.226Z,0.51
2023-04-18T00:42:05.221Z,0.52
2023-04-18T00:43:05.211Z,0.51
2023-04-18T00:44:05.250Z,0.52
2023-04-18T00:45:05.282Z,0.51
2023-04-18T00:46:05.399Z,0.51
2023-04-18T00:47:05.328Z,0.51
2023-04-18T00:48:05.402Z,0.52
2023-04-18T00:49:05.344Z,0.52
2023-04-18T00:50:05.401Z,0.51
2023-04-18T00:51:05.404Z,0.51
2023-04-18T00:52:05.461Z,0.51
2023-04-18T00:53:05.487Z,0.51
2023-04-18T00:54:05.488Z,0.51
2023-04-18T00:55:05.518Z,0.52
2023-04-18T00:56:05.550Z,0.52
2023-04-18T00:57:05.610Z,0.52
2023-04-18T00:58:05.607Z,0.51
2023-04-18T00:59:05.622Z,0.52
2023-04-18T01:00:05.651Z,0.51
2023-04-18T01:01:05.736Z,0.52
2023-04-18T01:02:05.825Z,0.51
2023-04-18T01:03:05.752Z,0.52
2023-04-18T01:04:05.802Z,0.51
2023-04-18T01:05:05.767Z,0.51
2023-04-18T01:06:05.774Z,0.51
2023-04-18T01:07:05.844Z,0.51
2023-04-18T01:08:05.864Z,0.51
2023-04-18T01:09:05.901Z,0.52
2023-04-18T01:10:05.894Z,0.50
2023-04-18T01:11:05.935Z,0.51
2023-04-18T01:12:05.967Z,0.50
2023-04-18T01:13:05.950Z,0.53
2023-04-18T01:14:05.988Z,0.51
2023-04-18T01:15:05.994Z,0.52
2023-04-18T01:16:06.108Z,0.51
2023-04-18T01:17:06.103Z,0.51
2023-04-18T01:18:06.108Z,0.51
2023-04-18T01:19:06.108Z,0.51
2023-04-18T01:20:06.157Z,0.52
2023-04-18T01:21:06.240Z,0.51
2023-04-18T01:22:06.231Z,0.52
2023-04-18T01:23:06.220Z,0.51
2023-04-18T01:24:06.253Z,0.52
2023-04-18T01:25:06.297Z,0.52
2023-04-18T01:26:06.308Z,0.50
2023-04-18T01:27:06.342Z,0.51
2023-04-18T01:28:06.379Z,0.51
2023-04-18T01:29:06.457Z,0.51
2023-04-18T01:30:06.475Z,0.52
2023-04-18T01:31:06.483Z,0.51
2023-04-18T01:32:06.517Z,0.51
2023-04-18T01:33:06.566Z,0.52
2023-04-18T01:34:06.589Z,0.51
2023-04-18T01:35:06.582Z,0.51
2023-04-18T01:36:06.635Z,0.51
2023-04-18T01:37:06.680Z,0.51
2023-04-18T01:38:06.674Z,0.51
2023-04-18T01:39:06.715Z,0.51
2023-04-18T01:40:06.725Z,0.50
2023-04-18T01:41:06.713Z,0.50
2023-04-18T01:42:06.828Z,0.50
2023-04-18T01:43:06.831Z,0.52
2023-04-18T01:44:06.824Z,0.52
2023-04-18T01:45:06.821Z,0.50
2023-04-18T01:46:06.974Z,0.52
2023-04-18T01:47:06.915Z,0.51
2023-04-18T01:48:06.919Z,0.52
2023-04-18T01:49:06.990Z,0.51
2023-04-18T01:50:06.941Z,0.52
2023-04-18T01:51:06.990Z,0.51
2023-04-18T01:52:07.041Z,0.52
2023-04-18T01:53:07.046Z,0.51
2023-04-18T01:54:07.088Z,0.51
2023-04-18T01:55:07.082Z,0.53
2023-04-18T01:56:07.116Z,0.50
2023-04-18T01:57:07.136Z,0.50
2023-04-18T01:58:07.144Z,0.51
2023-04-18T01:59:07.166Z,0.50
2023-04-18T02:00:07.237Z,0.51
2023-04-18T02:01:07.311Z,0.50
2023-04-18T02:02:07.425Z,0.51
2023-04-18T02:03:07.358Z,0.53
2023-04-18T02:04:07.362Z,0.51
2023-04-18T02:05:07.318Z,0.52
2023-04-18T02:06:07.354Z,0.50
2023-04-18T02:07:07.417Z,0.50
2023-04-18T02:08:07.428Z,0.51
2023-04-18T02:09:07.479Z,0.51
2023-04-18T02:10:07.513Z,0.51
2023-04-18T02:11:07.546Z,0.50
2023-04-18T02:12:07.543Z,0.51
2023-04-18T02:13:07.548Z,0.51
2023-04-18T02:14:07.616Z,0.51
2023-04-18T02:15:07.606Z,0.51
2023-04-18T02:16:07.739Z,0.51
2023-04-18T02:17:07.695Z,0.51
2023-04-18T02:18:07.682Z,0.52
2023-04-18T02:19:07.742Z,0.52
2023-04-18T02:20:07.716Z,0.51
2023-04-18T02:21:07.763Z,0.51
2023-04-18T02:22:07.824Z,0.50
2023-04-18T02:23:07.798Z,0.50
2023-04-18T02:24:07.796Z,0.51
2023-04-18T02:25:07.814Z,0.50
2023-04-18T02:26:07.803Z,0.50
2023-04-18T02:27:07.853Z,0.52
2023-04-18T02:28:07.870Z,0.50
2023-04-18T02:29:07.833Z,0.50
2023-04-18T02:30:07.837Z,0.50
2023-04-18T02:31:07.857Z,0.50
2023-04-18T02:32:07.930Z,0.51
2023-04-18T02:33:08.036Z,0.50
2023-04-18T02:34:07.861Z,0.50
2023-04-18T02:35:07.866Z,0.50
2023-04-18T02:36:07.867Z,0.50
2023-04-18T02:37:07.920Z,0.52
2023-04-18T02:38:07.922Z,0.51
2023-04-18T02:39:07.896Z,0.51
2023-04-18T02:40:07.878Z,0.50
2023-04-18T02:41:07.877Z,0.51
2023-04-18T02:42:07.918Z,0.51
2023-04-18T02:43:07.921Z,0.50
2023-04-18T02:44:07.896Z,0.50
2023-04-18T02:45:07.888Z,0.51
2023-04-18T02:46:07.966Z,0.51
2023-04-18T02:47:07.893Z,0.51
2023-04-18T02:48:07.943Z,0.52
2023-04-18T02:49:07.896Z,0.51
2023-04-18T02:50:07.918Z,0.50
2023-04-18T02:51:07.876Z,0.51
2023-04-18T02:52:07.874Z,0.52
2023-04-18T02:53:07.891Z,0.51
2023-04-18T02:54:07.866Z,0.52
2023-04-18T02:55:07.856Z,0.52
2023-04-18T02:56:07.907Z,0.52
2023-04-18T02:57:07.902Z,0.52
2023-04-18T02:58:07.925Z,0.52
2023-04-18T02:59:07.893Z,0.53
2023-04-18T03:00:07.933Z,0.51
2023-04-18T03:01:07.920Z,0.52
2023-04-18T03:02:07.980Z,0.53
2023-04-18T03:03:07.986Z,0.51
2023-04-18T03:04:07.956Z,0.51
2023-04-18T03:05:07.985Z,0.52
2023-04-18T03:06:07.944Z,0.52
2023-04-18T03:07:07.990Z,0.52
2023-04-18T03:08:07.959Z,0.52
2023-04-18T03:09:07.943Z,0.52
2023-04-18T03:10:07.964Z,0.51
2023-04-18T03:11:07.956Z,0.52
2023-04-18T03:12:07.994Z,0.53
2023-04-18T03:13:08.000Z,0.52
2023-04-18T03:14:08.015Z,0.51
2023-04-18T03:15:08.035Z,0.52
2023-04-18T03:16:08.083Z,0.52
2023-04-18T03:17:08.074Z,0.51
2023-04-18T03:18:08.075Z,0.51
2023-04-18T03:19:08.066Z,0.52
2023-04-18T03:20:08.115Z,0.52
2023-04-18T03:21:08.091Z,0.52
2023-04-18T03:22:08.132Z,0.52
2023-04-18T03:23:08.124Z,0.51
2023-04-18T03:24:09.229Z,0.51
2023-04-18T03:25:08.159Z,0.51
2023-04-18T03:26:08.166Z,0.50
2023-04-18T03:27:08.162Z,0.50
2023-04-18T03:28:08.196Z,0.51
2023-04-18T03:29:08.228Z,0.51
2023-04-18T03:30:08.177Z,0.52
2023-04-18T03:31:08.244Z,0.52
2023-04-18T03:32:08.249Z,0.51
2023-04-18T03:33:08.257Z,0.52
2023-04-18T03:34:08.263Z,0.53
2023-04-18T03:35:08.319Z,0.53
2023-04-18T03:36:08.327Z,0.52
2023-04-18T03:37:08.303Z,0.52
2023-04-18T03:38:08.363Z,0.52
2023-04-18T03:39:09.213Z,0.51
2023-04-18T03:40:08.352Z,0.53
2023-04-18T03:41:08.381Z,0.51
2023-04-18T03:42:08.361Z,0.52
2023-04-18T03:43:08.420Z,0.52
2023-04-18T03:44:08.429Z,0.51
2023-04-18T03:45:08.450Z,0.51
2023-04-18T03:46:08.502Z,0.52
2023-04-18T03:47:08.460Z,0.52
2023-04-18T03:48:08.477Z,0.52
2023-04-18T03:49:08.529Z,0.53
2023-04-18T03:50:08.550Z,0.51
2023-04-18T03:51:08.590Z,0.51
2023-04-18T03:52:08.588Z,0.53
2023-04-18T03:53:08.655Z,0.51
2023-04-18T03:54:08.650Z,0.52
2023-04-18T03:55:08.712Z,0.52
2023-04-18T03:56:08.714Z,0.53
2023-04-18T03:57:08.792Z,0.52
2023-04-18T03:58:08.817Z,0.54
2023-04-18T03:59:08.901Z,0.53
2023-04-18T04:00:08.934Z,0.52
2023-04-18T04:01:09.008Z,0.53
2023-04-18T04:02:09.115Z,0.53
2023-04-18T04:03:09.281Z,0.52
2023-04-18T04:04:09.354Z,0.52
2023-04-18T04:05:09.337Z,0.52
2023-04-18T04:06:09.271Z,0.52
2023-04-18T04:07:09.306Z,0.52
2023-04-18T04:08:09.376Z,0.53
2023-04-18T04:09:09.430Z,0.53
2023-04-18T04:10:09.492Z,0.52
2023-04-18T04:11:09.834Z,0.53
2023-04-18T04:12:09.606Z,0.52
2023-04-18T04:13:09.656Z,0.52
2023-04-18T04:14:09.732Z,0.54
2023-04-18T04:15:09.780Z,0.55
2023-04-18T04:16:09.962Z,0.53
2023-04-18T04:17:09.887Z,0.53
2023-04-18T04:18:09.966Z,0.53
2023-04-18T04:19:10.002Z,0.54
2023-04-18T04:20:10.068Z,0.54
2023-04-18T04:21:10.086Z,0.54
2023-04-18T04:22:10.176Z,0.53
2023-04-18T04:23:10.192Z,0.53
2023-04-18T04:24:10.220Z,0.53
2023-04-18T04:25:10.301Z,0.55
2023-04-18T04:26:10.358Z,0.55
2023-04-18T04:27:10.390Z,0.54
2023-04-18T04:28:10.421Z,0.53
2023-04-18T04:29:10.503Z,0.54
2023-04-18T04:30:11.998Z,0.53
2023-04-18T04:31:10.599Z,0.54
2023-04-18T04:32:10.516Z,0.55
2023-04-18T04:33:10.562Z,0.54
2023-04-18T04:34:10.543Z,0.55
2023-04-18T04:35:10.509Z,0.54
2023-04-18T04:36:10.527Z,0.55
2023-04-18T04:37:10.502Z,0.55
2023-04-18T04:38:10.511Z,0.54
2023-04-18T04:39:10.498Z,0.55
2023-04-18T04:40:10.474Z,0.54
2023-04-18T04:41:10.465Z,0.56
2023-04-18T04:42:10.473Z,0.55
2023-04-18T04:43:10.472Z,0.56
2023-04-18T04:44:10.425Z,0.56
2023-04-18T04:45:10.465Z,0.56
2023-04-18T04:46:10.476Z,0.56
2023-04-18T04:47:10.414Z,0.56
2023-04-18T04:48:10.487Z,0.58
2023-04-18T04:49:10.413Z,0.58
2023-04-18T04:50:10.402Z,0.58
2023-04-18T04:51:10.416Z,0.62
2023-04-18T04:52:10.380Z,0.63
2023-04-18T04:53:10.344Z,0.65
2023-04-18T04:54:10.354Z,0.66
2023-04-18T04:55:10.374Z,0.70
2023-04-18T04:56:10.351Z,0.68
2023-04-18T04:57:10.364Z,0.69
2023-04-18T04:58:10.379Z,0.71
2023-04-18T04:59:10.337Z,0.69
2023-04-18T05:00:10.346Z,0.69
2023-04-18T05:02:36.438Z,0.50
2023-04-18T05:03:29.492Z,0.50
2023-04-18T05:04:29.327Z,0.50
2023-04-18T05:05:29.536Z,0.50
2023-04-18T05:06:29.169Z,0.50
2023-04-18T05:07:29.185Z,0.50
2023-04-18T05:08:29.189Z,0.51
2023-04-18T05:09:29.191Z,0.52
2023-04-18T05:10:29.162Z,0.51
2023-04-18T05:11:29.166Z,0.52
2023-04-18T05:12:29.170Z,0.50
2023-04-18T05:13:29.189Z,0.52
2023-04-18T05:14:29.193Z,0.52
2023-04-18T05:15:29.200Z,0.53
2023-04-18T05:16:29.187Z,0.49
2023-04-18T05:17:29.158Z,0.50
2023-04-18T05:18:29.160Z,0.51
2023-04-18T05:19:29.087Z,0.50
2023-04-18T05:20:29.100Z,0.51
2023-04-18T05:21:29.084Z,0.52
2023-04-18T05:22:29.074Z,0.51
2023-04-18T05:23:29.060Z,0.52
2023-04-18T05:24:29.083Z,0.52
2023-04-18T05:25:29.067Z,0.55
2023-04-18T05:26:29.036Z,0.80
2023-04-18T05:27:29.042Z,0.67
2023-04-18T05:28:29.049Z,0.62
2023-04-18T05:29:29.030Z,0.62
2023-04-18T05:30:29.005Z,0.62
2023-04-18T05:31:29.134Z,0.59
2023-04-18T05:32:29.080Z,0.53
2023-04-18T05:33:29.496Z,0.45
2023-04-18T05:34:29.046Z,0.53
2023-04-18T05:35:29.005Z,0.50
2023-04-18T05:36:28.962Z,0.53
2023-04-18T05:37:29.023Z,0.55
2023-04-18T05:38:29.481Z,0.56
2023-04-18T05:39:28.964Z,0.66
2023-04-18T05:40:28.992Z,0.67
2023-04-18T05:41:28.970Z,0.69
2023-04-18T05:42:28.975Z,0.71
2023-04-18T05:43:29.437Z,0.75
2023-04-18T05:44:29.000Z,0.79
2023-04-18T05:45:28.995Z,0.79
2023-04-18T05:47:48.245Z,0.50
2023-04-18T05:48:48.188Z,0.50
2023-04-18T05:49:48.005Z,0.50
2023-04-18T05:50:48.026Z,0.50
2023-04-18T05:51:48.013Z,0.50
2023-04-18T05:52:48.015Z,0.51
2023-04-18T05:53:48.218Z,0.52
2023-04-18T05:54:47.986Z,0.50
2023-04-18T05:55:47.982Z,0.51
2023-04-18T05:56:48.156Z,0.51
2023-04-18T05:57:47.988Z,0.51
2023-04-18T05:58:47.972Z,0.56
2023-04-18T05:59:47.933Z,0.56
2023-04-18T06:00:47.935Z,0.62
2023-04-18T06:01:48.024Z,0.67
2023-04-18T06:02:48.140Z,0.77
2023-04-18T06:03:48.157Z,0.86
2023-04-18T06:04:48.066Z,0.86
2023-04-18T06:05:48.070Z,0.79
2023-04-18T06:06:47.874Z,0.75
2023-04-18T06:07:47.891Z,0.79
2023-04-18T06:08:47.903Z,0.76
2023-04-18T06:09:47.865Z,1.01
2023-04-18T06:10:47.824Z,1.85
2023-04-18T06:11:47.871Z,3.82
2023-04-18T06:12:47.884Z,4.95
2023-04-18T06:13:47.878Z,4.33
2023-04-18T06:14:47.818Z,5.44
2023-04-18T06:15:48.736Z,5.77
2023-04-18T06:16:47.805Z,5.46
2023-04-18T06:17:47.840Z,5.37
2023-04-18T06:18:47.826Z,5.09
2023-04-18T06:19:47.771Z,5.00
2023-04-18T06:20:47.769Z,4.58
2023-04-18T06:21:47.787Z,4.04
2023-04-18T06:22:47.803Z,3.44
2023-04-18T06:23:47.799Z,3.37
2023-04-18T06:24:47.728Z,3.60
2023-04-18T06:25:47.753Z,3.53
2023-04-18T06:26:47.773Z,3.64
2023-04-18T06:27:47.771Z,3.63
2023-04-18T06:28:47.811Z,3.68
2023-04-18T06:29:47.755Z,3.75
2023-04-18T06:30:48.686Z,3.32
2023-04-18T06:31:47.751Z,3.35
2023-04-18T06:32:47.802Z,3.10
2023-04-18T06:33:49.120Z,2.98
2023-04-18T06:34:47.756Z,3.02
2023-04-18T06:35:47.721Z,3.28
2023-04-18T06:36:47.739Z,3.98
2023-04-18T06:37:47.750Z,4.96
2023-04-18T06:38:48.236Z,5.08
2023-04-18T06:39:47.756Z,5.10
2023-04-18T06:40:47.759Z,5.29
2023-04-18T06:41:47.747Z,5.67
2023-04-18T06:42:47.810Z,5.58
2023-04-18T06:44:02.231Z,5.12
2023-04-18T06:44:49.111Z,5.12
2023-04-18T06:45:48.183Z,4.67
2023-04-18T06:48:07.463Z,0.50
2023-04-18T06:49:07.062Z,0.50
2023-04-18T06:50:07.131Z,0.50
2023-04-18T06:51:07.104Z,0.50
2023-04-18T06:52:07.052Z,0.50
2023-04-18T06:53:07.058Z,0.50
2023-04-18T06:54:07.253Z,0.50
2023-04-18T06:55:07.021Z,0.50
2023-04-18T06:56:07.023Z,0.50
2023-04-18T06:57:07.051Z,0.50
2023-04-18T06:58:07.034Z,0.51
2023-04-18T06:59:07.648Z,0.52
2023-04-18T07:00:07.293Z,0.50
2023-04-18T07:01:07.029Z,0.51
2023-04-18T07:02:07.093Z,0.51
2023-04-18T07:03:09.494Z,0.52
2023-04-18T07:04:07.052Z,0.51
2023-04-18T07:05:06.990Z,0.48
2023-04-18T07:06:07.001Z,0.51
2023-04-18T07:07:06.935Z,0.56
2023-04-18T07:08:06.927Z,0.54
2023-04-18T07:09:06.959Z,0.55
2023-04-18T07:10:06.967Z,0.57
2023-04-18T07:11:06.932Z,0.54
2023-04-18T07:12:06.913Z,0.59
2023-04-18T07:13:06.923Z,0.56
2023-04-18T07:14:07.324Z,0.56
2023-04-18T07:15:06.906Z,0.55
2023-04-18T07:16:06.838Z,0.55
2023-04-18T07:17:07.814Z,0.50
2023-04-18T07:18:06.874Z,0.47
2023-04-18T07:19:07.949Z,0.46
2023-04-18T07:20:06.876Z,0.50
2023-04-18T07:21:06.912Z,0.57
2023-04-18T07:22:06.820Z,0.64
2023-04-18T07:23:06.845Z,0.65
2023-04-18T07:24:06.867Z,0.67
2023-04-18T07:25:07.252Z,0.74
2023-04-18T07:26:07.157Z,0.70
2023-04-18T07:27:06.883Z,0.72
2023-04-18T07:28:06.902Z,0.72
2023-04-18T07:29:07.296Z,0.70
2023-04-18T07:30:07.044Z,0.69
2023-04-18T07:31:07.126Z,0.56
2023-04-18T07:32:08.477Z,0.46
2023-04-18T07:33:07.179Z,0.50
2023-04-18T07:34:07.289Z,0.57
2023-04-18T07:35:07.241Z,0.64
2023-04-18T07:36:07.292Z,0.86
2023-04-18T07:37:07.437Z,1.06
2023-04-18T07:38:07.496Z,1.09
2023-04-18T07:39:07.770Z,1.01
2023-04-18T07:40:07.767Z,0.83
2023-04-18T07:41:07.360Z,0.64
2023-04-18T07:42:07.353Z,0.61
2023-04-18T07:43:07.405Z,0.55
2023-04-18T07:44:07.469Z,0.51
2023-04-18T07:45:07.803Z,0.53
2023-04-18T07:46:07.594Z,0.63
2023-04-18T07:47:07.560Z,0.67
2023-04-18T07:48:07.764Z,0.64
2023-04-18T07:49:07.640Z,0.54
2023-04-18T07:50:07.700Z,0.49
2023-04-18T07:51:07.683Z,0.51
2023-04-18T07:52:07.711Z,0.64
2023-04-18T07:53:07.749Z,0.66
2023-04-18T07:54:07.771Z,0.62
2023-04-18T07:55:07.751Z,0.65
2023-04-18T07:56:07.815Z,0.67
2023-04-18T07:57:07.852Z,0.70
2023-04-18T07:58:07.776Z,0.74
2023-04-18T07:59:07.821Z,0.77
2023-04-18T08:00:07.880Z,0.84
2023-04-18T08:01:07.952Z,0.90
2023-04-18T08:02:08.042Z,1.01
2023-04-18T08:03:08.264Z,0.96
2023-04-18T08:04:08.319Z,0.99
2023-04-18T08:05:08.160Z,1.01
2023-04-18T08:06:08.165Z,1.02
2023-04-18T08:07:08.230Z,1.03
2023-04-18T08:08:08.286Z,1.00
2023-04-18T08:09:08.353Z,1.02
2023-04-18T08:10:08.416Z,1.10
2023-04-18T08:11:08.769Z,1.18
2023-04-18T08:12:08.464Z,1.21
2023-04-18T08:13:08.594Z,1.28
2023-04-18T08:14:08.519Z,1.21
2023-04-18T08:15:08.594Z,1.21
2023-04-18T08:16:08.632Z,1.24
2023-04-18T08:17:08.650Z,1.28
2023-04-18T08:18:08.668Z,1.28
2023-04-18T08:19:08.720Z,1.22
2023-04-18T08:20:08.760Z,1.43
2023-04-18T08:21:08.770Z,1.24
2023-04-18T08:22:08.837Z,1.14
2023-04-18T08:23:11.191Z,1.11
2023-04-18T08:24:08.866Z,1.10
2023-04-18T08:25:09.263Z,1.09
2023-04-18T08:26:08.822Z,1.07
2023-04-18T08:27:08.828Z,1.05
2023-04-18T08:28:08.841Z,1.05
2023-04-18T08:29:08.896Z,1.04
2023-04-18T08:30:09.612Z,1.02
2023-04-18T08:31:08.815Z,1.06
2023-04-18T08:32:08.844Z,1.07
2023-04-18T08:33:08.798Z,1.16
2023-04-18T08:34:08.744Z,1.17
2023-04-18T08:35:08.774Z,1.11
2023-04-18T08:36:08.835Z,0.86
2023-04-18T08:37:08.777Z,0.81
2023-04-18T08:38:08.761Z,0.86
2023-04-18T08:39:08.735Z,0.73
2023-04-18T08:40:08.810Z,0.67
2023-04-18T08:41:08.735Z,0.67
2023-04-18T08:42:08.708Z,0.60
2023-04-18T08:43:08.727Z,0.50
2023-04-18T08:44:08.690Z,0.36
2023-04-18T08:45:09.442Z,0.50
2023-04-18T08:46:08.731Z,0.62
2023-04-18T08:47:08.676Z,0.81
2023-04-18T08:48:08.701Z,0.60
2023-04-18T08:49:09.666Z,0.50
2023-04-18T08:50:08.841Z,0.56
2023-04-18T08:51:08.838Z,0.78
2023-04-18T08:52:08.642Z,0.47
2023-04-18T08:53:08.655Z,0.34
2023-04-18T08:54:08.653Z,0.43
2023-04-18T08:55:09.299Z,0.53
2023-04-18T08:56:08.625Z,0.64
2023-04-18T08:57:08.617Z,0.95
2023-04-18T08:58:08.648Z,1.16
2023-04-18T08:59:08.670Z,1.27
2023-04-18T09:00:08.811Z,1.35
2023-04-18T09:01:08.833Z,1.43
2023-04-18T09:02:08.661Z,1.51
2023-04-18T09:03:08.740Z,1.58
2023-04-18T09:04:08.620Z,1.47
2023-04-18T09:05:08.790Z,1.43
2023-04-18T09:06:08.542Z,1.49
2023-04-18T09:07:08.533Z,1.57
2023-04-18T09:08:08.568Z,1.65
2023-04-18T09:09:08.477Z,1.68
2023-04-18T09:10:08.519Z,1.73
2023-04-18T09:11:08.495Z,1.70
2023-04-18T09:12:08.480Z,1.73
2023-04-18T09:13:08.474Z,1.67
2023-04-18T09:14:08.490Z,1.75
2023-04-18T09:15:08.514Z,1.58
2023-04-18T09:16:08.490Z,1.53
2023-04-18T09:17:08.582Z,1.60
2023-04-18T09:18:08.541Z,1.72
2023-04-18T09:19:08.421Z,1.87
2023-04-18T09:20:08.433Z,1.91
2023-04-18T09:21:08.428Z,1.89
2023-04-18T09:22:08.447Z,1.67
2023-04-18T09:23:08.446Z,1.76
2023-04-18T09:24:08.422Z,1.89
2023-04-18T09:25:08.821Z,1.85
2023-04-18T09:26:08.390Z,1.81
2023-04-18T09:27:08.383Z,1.78
2023-04-18T09:28:08.375Z,1.85
2023-04-18T09:29:08.437Z,1.95
2023-04-18T09:30:08.849Z,2.24
2023-04-18T09:31:08.402Z,2.42
2023-04-18T09:32:08.380Z,1.80
2023-04-18T09:33:08.373Z,1.72
2023-04-18T09:34:08.308Z,1.77
2023-04-18T09:35:08.833Z,1.78
2023-04-18T09:36:08.264Z,1.85
2023-04-18T09:37:08.351Z,1.63
2023-04-18T09:38:08.305Z,1.42
2023-04-18T09:39:08.290Z,1.14
2023-04-18T09:40:08.386Z,1.03
2023-04-18T09:41:08.276Z,0.98
2023-04-18T09:42:08.293Z,0.94
2023-04-18T09:43:08.270Z,0.64
2023-04-18T09:44:08.238Z,0.51
2023-04-18T09:45:08.409Z,0.40
2023-04-18T09:46:08.355Z,0.37
2023-04-18T09:47:08.266Z,0.34
2023-04-18T09:48:08.305Z,0.38
2023-04-18T09:49:10.412Z,0.58
2023-04-18T09:50:08.390Z,0.82
2023-04-18T09:51:08.203Z,1.00
2023-04-18T09:52:08.172Z,1.35
2023-04-18T09:53:08.207Z,1.65
2023-04-18T09:54:08.377Z,1.94
2023-04-18T09:55:08.442Z,2.22
2023-04-18T09:56:08.179Z,2.45
2023-04-18T09:57:08.173Z,2.59
2023-04-18T09:58:08.136Z,2.82
2023-04-18T09:59:08.160Z,2.85
2023-04-18T10:00:08.179Z,2.86
2023-04-18T10:01:08.541Z,3.05
2023-04-18T10:02:08.411Z,2.90
2023-04-18T10:03:08.209Z,3.06
2023-04-18T10:04:08.196Z,3.04
2023-04-18T10:05:08.151Z,3.23
2023-04-18T10:06:08.328Z,3.20
2023-04-18T10:07:08.047Z,3.23
2023-04-18T10:08:08.035Z,3.26
2023-04-18T10:09:08.048Z,3.28
2023-04-18T10:10:15.887Z,3.54
2023-04-18T10:11:08.064Z,3.56
2023-04-18T10:12:08.101Z,3.59
2023-04-18T10:13:08.034Z,3.64
2023-04-18T10:14:08.039Z,3.79
2023-04-18T10:15:08.033Z,4.17
2023-04-18T10:16:08.851Z,4.27
2023-04-18T10:17:08.012Z,4.55
2023-04-18T10:18:08.027Z,6.34
2023-04-18T10:19:08.015Z,5.41
2023-04-18T10:20:07.990Z,5.34
2023-04-18T10:21:08.352Z,5.02
2023-04-18T10:22:07.929Z,4.81
2023-04-18T10:23:08.070Z,4.88
2023-04-18T10:24:07.968Z,5.14
2023-04-18T10:25:07.942Z,5.09
2023-04-18T10:26:08.387Z,5.10
2023-04-18T10:27:07.935Z,3.67
2023-04-18T10:28:07.909Z,3.38
2023-04-18T10:29:07.887Z,3.02
2023-04-18T10:30:09.093Z,3.53
2023-04-18T10:31:08.374Z,3.67
2023-04-18T10:32:07.963Z,4.03
2023-04-18T10:33:10.577Z,4.45
2023-04-18T10:34:09.752Z,4.47
2023-04-18T10:35:07.874Z,4.58
2023-04-18T10:36:07.878Z,4.81
2023-04-18T10:37:07.871Z,3.39
2023-04-18T10:38:07.828Z,1.27
2023-04-18T10:39:07.841Z,0.56
2023-04-18T10:40:07.934Z,0.47
2023-04-18T10:41:08.311Z,0.48
2023-04-18T10:42:07.832Z,0.64
2023-04-18T10:43:07.806Z,0.69
2023-04-18T10:44:08.749Z,0.88
2023-04-18T10:45:07.824Z,1.35
2023-04-18T10:46:17.051Z,1.85
2023-04-18T10:47:08.888Z,1.74
2023-04-18T10:48:07.929Z,1.61
2023-04-18T10:49:07.753Z,1.91
2023-04-18T10:50:08.753Z,1.97
2023-04-18T10:51:07.764Z,1.42
2023-04-18T10:52:07.825Z,0.94
2023-04-18T10:53:07.726Z,0.65
2023-04-18T10:54:07.706Z,0.53
2023-04-18T10:55:07.761Z,0.50
2023-04-18T10:56:07.812Z,0.57
2023-04-18T10:57:07.777Z,0.69
2023-04-18T10:58:15.474Z,0.80
2023-04-18T10:59:07.716Z,0.80
2023-04-18T11:00:07.680Z,0.84
2023-04-18T11:01:07.939Z,0.96
2023-04-18T11:02:07.722Z,1.17
2023-04-18T11:03:07.774Z,1.61
2023-04-18T11:04:07.746Z,1.64
2023-04-18T11:05:07.666Z,1.70
2023-04-18T11:06:07.924Z,1.93
2023-04-18T11:07:07.657Z,2.16
2023-04-18T11:08:07.645Z,2.44
2023-04-18T11:09:07.621Z,2.64
2023-04-18T11:10:07.585Z,2.84
2023-04-18T11:11:07.883Z,3.58
2023-04-18T11:12:07.731Z,4.29
2023-04-18T11:13:07.589Z,4.10
2023-04-18T11:14:07.580Z,4.08
2023-04-18T11:15:07.995Z,4.63
2023-04-18T11:16:07.586Z,5.34
2023-04-18T11:17:07.572Z,6.14
2023-04-18T11:18:07.668Z,6.68
2023-04-18T11:19:07.501Z,6.93
2023-04-18T11:20:07.564Z,7.89
2023-04-18T11:21:07.540Z,8.42
2023-04-18T11:22:07.525Z,8.06
2023-04-18T11:23:07.473Z,7.75
2023-04-18T11:24:07.542Z,7.58
2023-04-18T11:25:07.587Z,7.67
2023-04-18T11:26:07.593Z,7.75
2023-04-18T11:27:07.810Z,4.63
2023-04-18T11:28:07.467Z,3.50
2023-04-18T11:29:07.484Z,3.47
2023-04-18T11:30:07.481Z,2.21
2023-04-18T11:31:08.547Z,1.50
2023-04-18T11:32:07.623Z,0.71
2023-04-18T11:33:07.666Z,0.47
2023-04-18T11:34:07.474Z,0.42
2023-04-18T11:35:07.493Z,0.59
2023-04-18T11:36:07.899Z,0.63
2023-04-18T11:37:07.460Z,0.44
2023-04-18T11:38:07.403Z,0.50
2023-04-18T11:39:07.389Z,0.34
2023-04-18T11:40:07.657Z,0.34
2023-04-18T11:41:07.361Z,0.70
2023-04-18T11:42:07.412Z,0.95
2023-04-18T11:43:07.333Z,1.47
2023-04-18T11:44:07.387Z,2.72
2023-04-18T11:45:07.387Z,2.74
2023-04-18T11:46:07.338Z,4.06
2023-04-18T11:47:07.452Z,6.14
2023-04-18T11:48:07.412Z,7.35
2023-04-18T11:49:08.364Z,7.60
2023-04-18T11:50:07.462Z,7.95
2023-04-18T11:51:07.463Z,8.05
2023-04-18T11:52:07.499Z,7.95
2023-04-18T11:53:07.529Z,7.99
2023-04-18T11:54:07.482Z,7.90
2023-04-18T11:55:07.478Z,7.85
2023-04-18T11:56:07.607Z,8.03
2023-04-18T11:57:07.722Z,8.75
2023-04-18T11:58:07.529Z,10.05
2023-04-18T11:59:07.527Z,10.79
2023-04-18T12:00:07.545Z,10.84
2023-04-18T12:01:07.524Z,10.47
2023-04-18T12:02:16.422Z,10.32
2023-04-18T12:03:10.019Z,10.34
2023-04-18T12:04:07.878Z,10.33
2023-04-18T12:05:08.025Z,10.46
2023-04-18T12:06:07.593Z,10.73
2023-04-18T12:07:07.469Z,10.68
2023-04-18T12:08:07.461Z,10.49
2023-04-18T12:09:07.448Z,10.89
2023-04-18T12:10:07.505Z,11.21
2023-04-18T12:11:07.467Z,11.99
2023-04-18T12:12:07.454Z,12.15
2023-04-18T12:13:07.512Z,12.11
2023-04-18T12:14:07.405Z,12.11
2023-04-18T12:15:07.419Z,12.81
2023-04-18T12:16:07.460Z,13.53
2023-04-18T12:17:07.453Z,14.53
2023-04-18T12:18:07.434Z,15.73
2023-04-18T12:19:07.380Z,16.59
2023-04-18T12:20:07.378Z,5.84
2023-04-18T12:21:07.402Z,7.76
2023-04-18T12:22:07.389Z,14.13
2023-04-18T12:23:07.326Z,19.65
2023-04-18T12:24:07.346Z,31.75
2023-04-18T12:25:07.353Z,40.69
2023-04-18T12:26:07.364Z,27.89
2023-04-18T12:27:07.352Z,30.23
2023-04-18T12:28:07.370Z,15.55
2023-04-18T12:29:07.316Z,20.23
2023-04-18T12:30:07.316Z,25.81
2023-04-18T12:31:07.448Z,6.79
2023-04-18T12:32:07.279Z,10.66
2023-04-18T12:33:07.308Z,13.71
2023-04-18T12:34:07.324Z,15.28
2023-04-18T12:35:07.270Z,17.43
2023-04-18T12:36:07.265Z,19.96
2023-04-18T12:37:07.432Z,22.44
2023-04-18T12:38:07.236Z,22.61
2023-04-18T12:39:07.961Z,19.28
2023-04-18T12:40:07.240Z,20.89
2023-04-18T12:41:07.258Z,20.93
2023-04-18T12:42:07.209Z,20.62
2023-04-18T12:43:07.221Z,17.63
2023-04-18T12:44:07.211Z,17.75
2023-04-18T12:45:07.244Z,44.49
2023-04-18T12:46:07.178Z,32.63
2023-04-18T12:47:07.284Z,24.70
2023-04-18T12:48:07.284Z,19.00
2023-04-18T12:49:07.177Z,13.89
2023-04-18T12:50:07.766Z,8.35
2023-04-18T12:51:07.204Z,4.62
2023-04-18T12:52:07.151Z,2.90
2023-04-18T12:53:07.148Z,2.61
2023-04-18T12:54:07.135Z,2.77
2023-04-18T12:55:07.456Z,2.59
2023-04-18T12:56:07.148Z,2.41
2023-04-18T12:57:07.157Z,3.59
2023-04-18T12:58:07.213Z,3.58
2023-04-18T12:59:07.109Z,6.80
2023-04-18T13:00:07.092Z,10.67
2023-04-18T13:01:07.113Z,15.41
2023-04-18T13:02:07.494Z,18.70
2023-04-18T13:03:07.115Z,25.17
2023-04-18T13:04:12.691Z,24.32
2023-04-18T13:05:08.396Z,24.40
2023-04-18T13:06:07.037Z,25.15
2023-04-18T13:07:07.072Z,26.05
2023-04-18T13:08:16.070Z,30.30
2023-04-18T13:09:08.074Z,24.69
2023-04-18T13:10:07.034Z,26.00
2023-04-18T13:11:07.027Z,27.56
2023-04-18T13:12:07.001Z,33.19
2023-04-18T13:13:07.023Z,37.34
2023-04-18T13:14:07.032Z,38.06
2023-04-18T13:15:06.988Z,41.27
2023-04-18T13:16:07.035Z,37.58
2023-04-18T13:17:07.128Z,37.42
2023-04-18T13:18:07.025Z,40.99
2023-04-18T13:19:06.987Z,43.52
2023-04-18T13:20:06.967Z,36.16